Patience Lab — WDH3221 — position and weather

sailwx.info

Track history (hours):
 
Tides and Currents Weather Stations Pressure Air Temp Water Temp Dewpoint Dewpoint Depression Visibility Wind Speed Wind Dir Waves Ship Positions

Patience Lab

Owner: P&R Water Taxi, Honolulu, HI. More information available from US FCC via Universal Licensing System and Coast Guard Vessel Documentation Center.

Last reported at 2018-May-18 08:22 UTC. Time now 2018-May-20 21:54 UTC.
Position N 29°08' W 090°12'.

Length 48 m; draft 3.2 m.

Type: Cargo ship. MMSI: 367605530.

Date/timePositionNaut miles runAvg speedWind from/ knotsBaromVisibWave heightAir tempDewpointWater temp
2018-May-18 08:22N 29°08' W 090°12'2 0.9
2018-May-18 06:20N 29°06' W 090°13'2 6.3
2018-May-18 06:00N 29°04' W 090°14'6 9.1
2018-May-18 05:19N 29°01' W 090°20'3 9.4
2018-May-18 05:00N 29°00' W 090°23'  
2018-May-14 17:26N 28°52' W 091°08'1 0.9
2018-May-14 16:48N 28°51' W 091°07'1 1.5
2018-May-14 16:25N 28°52' W 091°08'  
2018-May-08 19:59N 28°53' W 091°10'0 0.0
2018-May-08 19:23N 28°53' W 091°10'0 0.0
2018-May-08 18:58N 28°53' W 091°10'44 4.8
2018-May-08 09:46N 29°01' W 090°21'  
Track history (hours):
 
Tides and Currents Weather Stations Pressure Air Temp Water Temp Dewpoint Dewpoint Depression Visibility Wind Speed Wind Dir Waves Ship Positions

Patience Lab

Owner: P&R Water Taxi, Honolulu, HI. More information available from US FCC via Universal Licensing System and Coast Guard Vessel Documentation Center.

Last reported at 2018-May-18 08:22 UTC. Time now 2018-May-20 21:54 UTC.
Position N 29°08' W 090°12'.

Length 48 m; draft 3.2 m.

Type: Cargo ship. MMSI: 367605530.

Date/timePositionNaut miles runAvg speedWind from/ knotsBaromVisibWave heightAir tempDewpointWater temp
2018-May-18 08:22N 29°08' W 090°12'2 0.9
2018-May-18 06:20N 29°06' W 090°13'2 6.3
2018-May-18 06:00N 29°04' W 090°14'6 9.1
2018-May-18 05:19N 29°01' W 090°20'3 9.4
2018-May-18 05:00N 29°00' W 090°23'  
2018-May-14 17:26N 28°52' W 091°08'1 0.9
2018-May-14 16:48N 28°51' W 091°07'1 1.5
2018-May-14 16:25N 28°52' W 091°08'  
2018-May-08 19:59N 28°53' W 091°10'0 0.0
2018-May-08 19:23N 28°53' W 091°10'0 0.0
2018-May-08 18:58N 28°53' W 091°10'44 4.8
2018-May-08 09:46N 29°01' W 090°21'  

Dump ship's entire track history